James Reserve, California Weather observations

Data are for 10 minute period ending at time listed.
 Day   Time   Solar   Ave.   Ave.  Ave.  Vector  Max.   Baro.   Total    
  of    of     Rad.   Air    Rel.  Wind   Wind   Wind  Press.  Precip.   
Year   Day            Temp.  Hum.  Speed  Dir.   Gust                    
2016   (PST)  Kw/m2    F      %     mph   deg.    mph    mb.     in.     
-------------------------------------------------------------------------
 207   10:10   0.92   80.3    27    1.0   224     2.8   842.0    0.00 
 207   10:20   0.94   81.3    26    1.2   221     2.7   842.0    0.00 
 207   10:30   0.94   81.2    25    0.9   215     2.4   842.0    0.00 
 207   10:40   0.97   80.7    26    1.1   217     2.6   842.0    0.00 
 207   10:50   0.88   81.2    24    0.9   170     3.2   842.0    0.00 
 207   11:00   0.99   80.8    25    0.8   124     2.1   842.0    0.00 
 207   11:10   0.93   82.0    24    0.9   213     2.9   842.0    0.00 
 207   11:20   1.00   82.2    24    0.9   184     2.1   842.0    0.00 
 207   11:30   1.01   82.5    24    0.9   200     2.5   842.0    0.00 
 207   11:40   0.91   82.5    24    1.0   197     1.9   841.0    0.00 
 207   11:50   0.86   82.5    24    0.8   191     1.7   841.0    0.00 
 207   12:00   0.79   82.0    24    1.0   188     2.1   842.0    0.00 
 207   12:10   0.84   80.1    24    0.8   165     2.0   841.0    0.00 
 207   12:20   0.96   81.5    23    1.0   158     2.2   841.0    0.00 
 207   12:30   0.94   81.6    24    1.0   155     2.4   841.0    0.00 
 207   12:40   0.61   81.7    25    1.0   103     2.2   841.0    0.00 
 207   12:50   0.52   81.4    24    1.0   173     2.5   841.0    0.00 
 207   13:00   0.42   80.0    25    0.8   152     2.5   841.0    0.00 
 207   13:10   0.51   80.2    26    0.6   110     1.6   841.0    0.00 
 207   13:20   0.45   80.4    27    0.8   156     2.0   841.0    0.00 
 207   13:30   0.55   80.5    26    0.7   145     1.6   841.0    0.00 
 207   13:40   0.50   80.7    26    1.0   160     2.6   841.0    0.00 
 207   13:50   0.80   81.4    25    0.9   170     2.8   841.0    0.00 
 207   14:00   0.73   82.1    24    0.9   151     2.2   841.0    0.00 
 207   14:10   0.48   81.5    25    1.0   146     2.6   841.0    0.00 
 207   14:20   0.27   81.1    25    0.8   157     2.3   841.0    0.00 
 207   14:30   0.25   80.3    26    0.6   201     1.9   841.0    0.00 
 207   14:40   0.25   80.3    26    0.7   136     1.8   840.0    0.00 
 207   14:50   0.25   80.6    26    0.7   162     1.8   840.0    0.00 
 207   15:00   0.24   80.0    26    0.9   146     3.1   840.0    0.00 
 207   15:10   0.22   79.7    26    0.7   185     2.1   840.0    0.00 
 207   15:20   0.25   80.1    27    0.6   137     1.4   840.0    0.00 
 207   15:30   0.34   80.6    26    1.0   198     2.6   840.0    0.00 
 207   15:40   0.20   80.3    27    0.8   141     1.9   840.0    0.00 
 207   15:50   0.14   79.8    28    0.6   214     1.6   840.0    0.00 
 207   16:00   0.15   79.1    29    0.5   138     1.7   840.0    0.00 
 207   16:10   0.17   78.9    28    0.5   186     1.1   840.0    0.00 
 207   16:20   0.13   78.6    31    0.5   166     1.2   840.0    0.00 
 207   16:30   0.12   77.8    35    0.5   148     1.2   840.0    0.00 
 207   16:40   0.10   77.6    33    0.5    36     1.4   840.0    0.00 
 207   16:50   0.08   77.2    34    0.5   148     1.2   840.0    0.00 
 207   17:00   0.07   76.5    38    0.4   154     1.3   840.0    0.00 
 207   17:10   0.05   75.8    40    0.3   120     0.7   840.0    0.00 
 207   17:20   0.04   75.8    37    0.3    13     0.6   840.0    0.00 
 207   17:30   0.03   74.9    39    0.2   258     0.7   840.0    0.00 
 207   17:40   0.01   74.0    42    0.1    10     0.3   840.0    0.00 
 207   17:50   0.01   73.2    44    0.2    11     0.6   840.0    0.00 
 207   18:00   0.01   72.2    45    0.1   321     0.3   840.0    0.00 
 207   18:10   0.01   71.3    47    0.2     4     0.3   840.0    0.00 
 207   18:20   0.01   70.6    48    0.2   358     0.5   840.0    0.00 
 207   18:30   0.00   69.9    48    0.2   358     0.5   840.0    0.00 
 207   18:40   0.00   69.0    48    0.2   331     0.4   840.0    0.00 
 207   18:50   0.00   68.2    49    0.4    14     0.7   840.0    0.00 
 207   19:00   0.00   67.7    49    0.3   343     0.5   840.0    0.00 
 207   19:10   0.00   67.0    48    0.3   350     0.5   840.0    0.00 
 207   19:20   0.00   66.3    49    0.2   326     0.5   840.0    0.00 
 207   19:30   0.00   65.6    49    0.3   345     0.7   840.0    0.00 
 207   19:40   0.00   65.1    50    0.2   354     0.5   840.0    0.00 
 207   19:50   0.00   64.6    51    0.3   347     0.5   840.0    0.00 
 207   20:00   0.00   64.2    51    0.2   355     0.4   840.0    0.00 
 207   20:10   0.00   63.8    52    0.2   352     0.5   841.0    0.00 
 207   20:20   0.00   63.4    53    0.3   358     0.5   841.0    0.00 
 207   20:30   0.00   62.9    54    0.3     4     0.5   841.0    0.00 
 207   20:40   0.00   62.8    54    0.3    11     0.4   841.0    0.00 
 207   20:50   0.00   62.5    55    0.3     1     0.5   841.0    0.00 
 207   21:00   0.00   62.4    56    0.3     0     0.5   841.0    0.00 
 207   21:10   0.00   62.1    56    0.3     1     0.5   841.0    0.00 
 207   21:20   0.00   61.9    57    0.2    10     0.4   841.0    0.00 
 207   21:30   0.00   61.6    57    0.2     4     0.4   841.0    0.00 
 207   21:40   0.00   61.4    57    0.2    10     0.4   841.0    0.00 
 207   21:50   0.00   61.4    57    0.3    17     0.5   841.0    0.00 
 207   22:00   0.00   61.3    57    0.2     4     0.4   841.0    0.00 
 207   22:10   0.00   61.4    57    0.3    26     0.7   841.0    0.00 
 207   22:20   0.00   61.6    57    0.2    11     0.4   841.0    0.00 
 207   22:30   0.00   61.7    57    0.3    20     0.5   841.0    0.00 
 207   22:40   0.00   61.8    57    0.2    12     0.3   841.0    0.00 
 207   22:50   0.00   61.8    56    0.3    30     0.6   841.0    0.00 
 207   23:00   0.00   62.0    56    0.3    29     0.7   841.0    0.00 
 207   23:10   0.00   61.9    57    0.2    14     0.4   841.0    0.00 
 207   23:20   0.00   61.8    57    0.3    27     0.5   841.0    0.00 
 207   23:30   0.00   61.7    58    0.2    29     0.4   841.0    0.00 
 207   23:40   0.00   61.6    59    0.2    28     0.5   841.0    0.00 
 207   23:50   0.00   61.6    59    0.2    16     0.4   841.0    0.00 
 208    0:00   0.00   61.3    59    0.2    14     0.4   840.0    0.00 
 208    0:10   0.00   61.2    59    0.3    28     0.5   840.0    0.00 
 208    0:20   0.00   61.0    60    0.2    22     0.5   840.0    0.00 
 208    0:30   0.00   60.8    60    0.2    27     0.4   840.0    0.00 
 208    0:40   0.00   60.7    60    0.3    24     0.5   840.0    0.00 
 208    0:50   0.00   60.4    60    0.2    24     0.3   840.0    0.00 
 208    1:00   0.00   60.3    61    0.2     9     0.3   840.0    0.00 
 208    1:10   0.00   60.0    61    0.2    34     0.4   840.0    0.00 
 208    1:20   0.00   60.1    60    0.3    39     0.4   840.0    0.00 
 208    1:30   0.00   59.9    60    0.2    19     0.4   840.0    0.00 
 208    1:40   0.00   59.8    62    0.2    31     0.3   840.0    0.00 
 208    1:50   0.00   59.8    62    0.2    24     0.3   840.0    0.00 
 208    2:00   0.00   59.8    62    0.2    35     0.4   840.0    0.00 
 208    2:10   0.00   59.8    62    0.2    23     0.3   840.0    0.00 
 208    2:20   0.00   59.7    63    0.2    40     0.5   840.0    0.00 
 208    2:30   0.00   59.6    63    0.2   358     0.3   840.0    0.00 
 208    2:40   0.00   59.5    63    0.2    31     0.5   840.0    0.00 
 208    2:50   0.00   59.4    64    0.3    42     0.4   840.0    0.00 
 208    3:00   0.00   59.3    64    0.3    14     0.5   840.0    0.00 
 208    3:10   0.00   59.4    64    0.3    32     0.6   840.0    0.00 
 208    3:20   0.00   59.1    64    0.3    19     0.5   840.0    0.00 
 208    3:30   0.00   59.2    64    0.2    29     0.5   840.0    0.00 
 208    3:40   0.00   59.0    65    0.2    23     0.5   840.0    0.00 
 208    3:50   0.00   58.9    65    0.2    25     0.3   840.0    0.00 
 208    4:00   0.00   58.8    65    0.2    14     0.3   840.0    0.00 
 208    4:10   0.00   58.6    66    0.2    20     0.3   840.0    0.00 
 208    4:20   0.00   58.5    66    0.2    33     0.4   840.0    0.00 
 208    4:30   0.00   58.5    66    0.2    41     0.3   840.0    0.00 
 208    4:40   0.00   58.5    66    0.2    24     0.4   840.0    0.00 
 208    4:50   0.00   58.4    67    0.2    40     0.5   840.0    0.00 
 208    5:00   0.00   58.5    67    0.2    31     0.4   840.0    0.00 
 208    5:10   0.00   58.5    67    0.2    29     0.3   840.0    0.00 
 208    5:20   0.01   58.7    66    0.2    30     0.4   840.0    0.00 
 208    5:30   0.01   58.9    66    0.2    30     0.4   840.0    0.00 
 208    5:40   0.01   59.0    66    0.2    43     0.4   840.0    0.00 
 208    5:50   0.01   59.1    66    0.2    31     0.4   840.0    0.00 
 208    6:00   0.01   59.1    66    0.3    35     0.6   840.0    0.00 
 208    6:10   0.02   59.5    66    0.4    46     0.7   840.0    0.00 
 208    6:20   0.03   59.8    66    0.3    45     0.5   840.0    0.00 
 208    6:30   0.03   60.3    66    0.5    49     0.6   840.0    0.00 
 208    6:40   0.03   61.0    65    0.5    50     0.7   840.0    0.00 
 208    6:50   0.05   62.1    64    0.7    51     0.9   841.0    0.00 
 208    7:00   0.04   63.6    63    0.8    52     0.9   841.0    0.00 
 208    7:10   0.05   64.8    61    0.7    52     0.8   841.0    0.00 
 208    7:20   0.08   66.0    59    0.6    49     0.9   841.0    0.00 
 208    7:30   0.39   67.3    57    0.6    52     0.8   841.0    0.00 
 208    7:40   0.41   69.1    54    0.5    55     0.8   841.0    0.00 
 208    7:50   0.27   70.7    53    0.4    47     0.9   841.0    0.00 
 208    8:00   0.51   72.6    51    0.5    46     1.1   841.0    0.00 
 208    8:10   0.59   75.8    46    0.5    68     1.4   841.0    0.00 
 208    8:20   0.64   77.9    40    0.6   186     1.3   841.0    0.00 
 208    8:30   0.66   80.1    34    0.6   166     1.7   841.0    0.00 
 208    8:40   0.68   80.4    35    0.6   196     1.3   841.0    0.00 
 208    8:50   0.71   81.1    32    0.8   215     1.8   841.0    0.00 
 208    9:00   0.75   81.4    31    0.8   218     1.9   841.0    0.00 
 208    9:10   0.78   82.1    32    0.7   226     1.6   841.0    0.00 
 208    9:20   0.81   83.7    29    0.7    42     1.7   841.0    0.00 
 208    9:30   0.83   83.0    29    0.9   166     2.2   841.0    0.00 
 208    9:40   0.85   82.0    31    0.7   179     2.5   840.0    0.00 
 208    9:50   0.88   83.2    29    0.8   178     2.1   840.0    0.00 
 208   10:00   0.87   84.3    28    0.8   209     2.0   840.0    0.00 

Return to James Reserve graphs page.


Western Regional Climate Center,wrcc@dri.edu